LGX01L EHAM-EDNY
Flight info
| Callsign | LGX01L |
|---|---|
| Flight time | 1h 3m |
| Altitude | 35000 |
| Route | LOPIK N852 EXHOM DCT BEGAR N491 ZUE |
| Aircraft | CL60/M-SADE3FGHIJ3J4J7P2RWXY/HB1D1 |
Departure
| Time | 2026-05-05 09:14 |
|---|---|
| Airport | Amsterdam Airport Schiphol (EHAM) |
Arrival
| Time | 2026-05-05 10:17 |
|---|---|
| Airport | Bodensee Airport Friedrichshafen (EDNY) |
| Time | Latitude | Longitude | Altitude | Speed | Heading |
|---|---|---|---|---|---|
| 2026-05-05 08:56 | 52.31187 | 4.80563 | -3 ft | 0 kts | 131° |
| 2026-05-05 09:10 | 52.31187 | 4.80579 | -2 ft | 6 kts | 60° |
| 2026-05-05 09:10 | 52.31245 | 4.80518 | -4 ft | 12 kts | 274° |
| 2026-05-05 09:10 | 52.31219 | 4.80385 | -7 ft | 18 kts | 225° |
| 2026-05-05 09:11 | 52.31086 | 4.80199 | -9 ft | 28 kts | 221° |
| 2026-05-05 09:11 | 52.30946 | 4.79997 | -4 ft | 29 kts | 222° |
| 2026-05-05 09:11 | 52.30795 | 4.79782 | -1 ft | 28 kts | 221° |
| 2026-05-05 09:11 | 52.30641 | 4.79561 | -3 ft | 28 kts | 222° |
| 2026-05-05 09:12 | 52.30497 | 4.79355 | -7 ft | 26 kts | 221° |
| 2026-05-05 09:12 | 52.30356 | 4.79154 | -5 ft | 30 kts | 221° |
| 2026-05-05 09:12 | 52.30212 | 4.78948 | -2 ft | 25 kts | 221° |
| 2026-05-05 09:12 | 52.30084 | 4.78766 | -2 ft | 23 kts | 221° |
| 2026-05-05 09:13 | 52.30045 | 4.78621 | -3 ft | 14 kts | 295° |
| 2026-05-05 09:13 | 52.30104 | 4.78503 | -6 ft | 8 kts | 325° |
| 2026-05-05 09:13 | 52.30155 | 4.78519 | -7 ft | 5 kts | 41° |
| 2026-05-05 09:13 | 52.30383 | 4.78845 | -4 ft | 92 kts | 40° |
| 2026-05-05 09:14 | 52.31081 | 4.79861 | 248 ft | 159 kts | 44° |
| 2026-05-05 09:14 | 52.31839 | 4.81235 | 1159 ft | 178 kts | 58° |
| 2026-05-05 09:14 | 52.32098 | 4.83208 | 2293 ft | 198 kts | 97° |
| 2026-05-05 09:14 | 52.31374 | 4.85116 | 3702 ft | 218 kts | 140° |
| 2026-05-05 09:15 | 52.29947 | 4.86085 | 4929 ft | 241 kts | 163° |
| 2026-05-05 09:15 | 52.28284 | 4.86777 | 5630 ft | 250 kts | 165° |
| 2026-05-05 09:15 | 52.26600 | 4.87474 | 5912 ft | 249 kts | 165° |
| 2026-05-05 09:15 | 52.24920 | 4.88176 | 6023 ft | 261 kts | 164° |
| 2026-05-05 09:16 | 52.23112 | 4.88949 | 7214 ft | 277 kts | 163° |
| 2026-05-05 09:16 | 52.21471 | 4.90221 | 8948 ft | 270 kts | 144° |
| 2026-05-05 09:16 | 52.19971 | 4.92121 | 10053 ft | 288 kts | 140° |
| 2026-05-05 09:16 | 52.18335 | 4.94278 | 10799 ft | 321 kts | 140° |
| 2026-05-05 09:17 | 52.16527 | 4.96642 | 11544 ft | 347 kts | 140° |
| 2026-05-05 09:17 | 52.14645 | 4.99092 | 12591 ft | 359 kts | 141° |
| 2026-05-05 09:17 | 52.12685 | 5.01638 | 13717 ft | 367 kts | 141° |
| 2026-05-05 09:17 | 52.10678 | 5.04199 | 14839 ft | 374 kts | 144° |
| 2026-05-05 09:18 | 52.08367 | 5.06097 | 15943 ft | 378 kts | 162° |
| 2026-05-05 09:18 | 52.05838 | 5.07256 | 17008 ft | 383 kts | 165° |
| 2026-05-05 09:18 | 52.03281 | 5.08394 | 18054 ft | 387 kts | 165° |
| 2026-05-05 09:18 | 52.00689 | 5.09552 | 19076 ft | 390 kts | 165° |
| 2026-05-05 09:19 | 51.98083 | 5.10716 | 19991 ft | 395 kts | 165° |
| 2026-05-05 09:19 | 51.95434 | 5.11897 | 20903 ft | 400 kts | 165° |
| 2026-05-05 09:19 | 51.92749 | 5.13092 | 21782 ft | 404 kts | 166° |
| 2026-05-05 09:19 | 51.90029 | 5.14301 | 22616 ft | 409 kts | 166° |
| 2026-05-05 09:20 | 51.87275 | 5.15524 | 23425 ft | 413 kts | 166° |
| 2026-05-05 09:20 | 51.84483 | 5.16762 | 24193 ft | 418 kts | 166° |
| 2026-05-05 09:20 | 51.81637 | 5.18022 | 24982 ft | 422 kts | 166° |
| 2026-05-05 09:20 | 51.78759 | 5.19295 | 25724 ft | 425 kts | 167° |
| 2026-05-05 09:21 | 51.75892 | 5.20562 | 26421 ft | 428 kts | 167° |
| 2026-05-05 09:21 | 51.73028 | 5.21825 | 27076 ft | 431 kts | 167° |
| 2026-05-05 09:21 | 51.70116 | 5.23108 | 27701 ft | 434 kts | 167° |
| 2026-05-05 09:21 | 51.67216 | 5.24384 | 28291 ft | 437 kts | 167° |
| 2026-05-05 09:22 | 51.64299 | 5.25666 | 28832 ft | 440 kts | 167° |
| 2026-05-05 09:22 | 51.61348 | 5.26961 | 29312 ft | 443 kts | 167° |
| 2026-05-05 09:22 | 51.58384 | 5.28261 | 29881 ft | 443 kts | 168° |
| 2026-05-05 09:22 | 51.55434 | 5.29553 | 30546 ft | 441 kts | 168° |
| 2026-05-05 09:23 | 51.52495 | 5.30840 | 31250 ft | 437 kts | 168° |
| 2026-05-05 09:23 | 51.49572 | 5.32118 | 32001 ft | 432 kts | 168° |
| 2026-05-05 09:23 | 51.46711 | 5.33368 | 32724 ft | 426 kts | 169° |
| 2026-05-05 09:23 | 51.43868 | 5.34608 | 33400 ft | 422 kts | 169° |
| 2026-05-05 09:24 | 51.41060 | 5.35831 | 34034 ft | 418 kts | 169° |
| 2026-05-05 09:24 | 51.38278 | 5.37041 | 34604 ft | 415 kts | 169° |
| 2026-05-05 09:24 | 51.35516 | 5.38243 | 34882 ft | 419 kts | 169° |
| 2026-05-05 09:25 | 51.29807 | 5.40719 | 34905 ft | 434 kts | 169° |
| 2026-05-05 09:25 | 51.23921 | 5.43046 | 34904 ft | 436 kts | 173° |
| 2026-05-05 09:26 | 51.17983 | 5.45046 | 34900 ft | 436 kts | 171° |
| 2026-05-05 09:26 | 51.12171 | 5.47548 | 34900 ft | 436 kts | 169° |
| 2026-05-05 09:27 | 51.06300 | 5.50117 | 34899 ft | 435 kts | 169° |
| 2026-05-05 09:27 | 51.00486 | 5.52653 | 34890 ft | 434 kts | 169° |
| 2026-05-05 09:28 | 50.94684 | 5.55175 | 34889 ft | 433 kts | 169° |
| 2026-05-05 09:28 | 50.88905 | 5.57681 | 34884 ft | 433 kts | 169° |
| 2026-05-05 09:29 | 50.83089 | 5.60194 | 34878 ft | 433 kts | 169° |
| 2026-05-05 09:29 | 50.77327 | 5.62677 | 34874 ft | 433 kts | 169° |
| 2026-05-05 09:30 | 50.71518 | 5.65174 | 34875 ft | 433 kts | 169° |
| 2026-05-05 09:30 | 50.65729 | 5.67725 | 34871 ft | 433 kts | 168° |
| 2026-05-05 09:31 | 50.59974 | 5.70394 | 34867 ft | 433 kts | 168° |
| 2026-05-05 09:31 | 50.54311 | 5.73517 | 34865 ft | 435 kts | 164° |
| 2026-05-05 09:32 | 50.48663 | 5.76842 | 34868 ft | 434 kts | 164° |
| 2026-05-05 09:32 | 50.43013 | 5.80157 | 34866 ft | 433 kts | 164° |
| 2026-05-05 09:33 | 50.37384 | 5.83448 | 34863 ft | 433 kts | 164° |
| 2026-05-05 09:33 | 50.31773 | 5.86719 | 34863 ft | 432 kts | 164° |
| 2026-05-05 09:34 | 50.26180 | 5.89970 | 34865 ft | 431 kts | 164° |
| 2026-05-05 09:34 | 50.20546 | 5.93234 | 34861 ft | 431 kts | 164° |
| 2026-05-05 09:35 | 50.14937 | 5.96476 | 34863 ft | 431 kts | 164° |
| 2026-05-05 09:35 | 50.06555 | 6.01305 | 34866 ft | 430 kts | 164° |
| 2026-05-05 09:36 | 50.00951 | 6.04524 | 34861 ft | 430 kts | 164° |
| 2026-05-05 09:36 | 49.95351 | 6.07733 | 34860 ft | 430 kts | 164° |
| 2026-05-05 09:37 | 49.89756 | 6.10930 | 34864 ft | 430 kts | 163° |
| 2026-05-05 09:37 | 49.84191 | 6.14279 | 34868 ft | 432 kts | 160° |
| 2026-05-05 09:38 | 49.78703 | 6.18025 | 34867 ft | 432 kts | 160° |
| 2026-05-05 09:38 | 49.73218 | 6.21753 | 34867 ft | 431 kts | 160° |
| 2026-05-05 09:39 | 49.67738 | 6.25466 | 34866 ft | 431 kts | 160° |
| 2026-05-05 09:39 | 49.62251 | 6.29146 | 34861 ft | 430 kts | 161° |
| 2026-05-05 09:40 | 49.56752 | 6.32698 | 34863 ft | 430 kts | 161° |
| 2026-05-05 09:40 | 49.51242 | 6.36250 | 34864 ft | 430 kts | 161° |
| 2026-05-05 09:41 | 49.45741 | 6.39847 | 34864 ft | 431 kts | 159° |
| 2026-05-05 09:41 | 49.40335 | 6.43764 | 34864 ft | 432 kts | 158° |
| 2026-05-05 09:42 | 49.34912 | 6.47601 | 34866 ft | 431 kts | 160° |
| 2026-05-05 09:42 | 49.29447 | 6.51249 | 34870 ft | 430 kts | 160° |
| 2026-05-05 09:43 | 49.23981 | 6.54889 | 34861 ft | 430 kts | 160° |
| 2026-05-05 09:43 | 49.18602 | 6.58797 | 34854 ft | 432 kts | 155° |
| 2026-05-05 09:44 | 49.13300 | 6.63061 | 34857 ft | 432 kts | 156° |
| 2026-05-05 09:44 | 49.07986 | 6.67314 | 34856 ft | 432 kts | 156° |
| 2026-05-05 09:45 | 49.02672 | 6.71555 | 34860 ft | 431 kts | 156° |
| 2026-05-05 09:45 | 48.97364 | 6.75779 | 34859 ft | 431 kts | 156° |
| 2026-05-05 09:46 | 48.92086 | 6.79968 | 34859 ft | 431 kts | 156° |
| 2026-05-05 09:46 | 48.86775 | 6.84171 | 34862 ft | 431 kts | 156° |
| 2026-05-05 09:47 | 48.81479 | 6.88352 | 34867 ft | 430 kts | 156° |
| 2026-05-05 09:47 | 48.76189 | 6.92516 | 34866 ft | 429 kts | 156° |
| 2026-05-05 09:48 | 48.70895 | 6.96674 | 34866 ft | 429 kts | 156° |
| 2026-05-05 09:48 | 48.65612 | 7.00813 | 34867 ft | 429 kts | 156° |
| 2026-05-05 09:49 | 48.60335 | 7.04937 | 34865 ft | 428 kts | 156° |
| 2026-05-05 09:49 | 48.55050 | 7.09058 | 34865 ft | 427 kts | 156° |
| 2026-05-05 09:50 | 48.49813 | 7.13131 | 34868 ft | 427 kts | 156° |
| 2026-05-05 09:50 | 48.44542 | 7.17221 | 34871 ft | 427 kts | 155° |
| 2026-05-05 09:51 | 48.39256 | 7.21312 | 34874 ft | 427 kts | 155° |
| 2026-05-05 09:51 | 48.33992 | 7.25377 | 34873 ft | 426 kts | 156° |
| 2026-05-05 09:52 | 48.28730 | 7.29431 | 34875 ft | 426 kts | 155° |
| 2026-05-05 09:52 | 48.23464 | 7.33479 | 34880 ft | 426 kts | 156° |
| 2026-05-05 09:53 | 48.18229 | 7.37493 | 34877 ft | 426 kts | 155° |
| 2026-05-05 09:53 | 48.12962 | 7.41523 | 34881 ft | 425 kts | 155° |
| 2026-05-05 09:54 | 48.07703 | 7.45537 | 34884 ft | 425 kts | 155° |
| 2026-05-05 09:54 | 48.02459 | 7.49531 | 34875 ft | 425 kts | 155° |
| 2026-05-05 09:55 | 47.97257 | 7.53684 | 34890 ft | 427 kts | 150° |
| 2026-05-05 09:55 | 47.92610 | 7.59311 | 34463 ft | 433 kts | 138° |
| 2026-05-05 09:56 | 47.90674 | 7.62687 | 33888 ft | 430 kts | 131° |
| 2026-05-05 09:56 | 47.89035 | 7.66409 | 33276 ft | 431 kts | 124° |
| 2026-05-05 09:56 | 47.87717 | 7.70407 | 32748 ft | 433 kts | 117° |
| 2026-05-05 09:56 | 47.86624 | 7.74541 | 32174 ft | 434 kts | 116° |
| 2026-05-05 09:57 | 47.85542 | 7.78707 | 31617 ft | 434 kts | 116° |
| 2026-05-05 09:57 | 47.84454 | 7.82877 | 31036 ft | 435 kts | 115° |
| 2026-05-05 09:57 | 47.83358 | 7.87069 | 30462 ft | 436 kts | 115° |
| 2026-05-05 09:57 | 47.82268 | 7.91227 | 29888 ft | 436 kts | 115° |
| 2026-05-05 09:58 | 47.81167 | 7.95423 | 29305 ft | 438 kts | 115° |
| 2026-05-05 09:58 | 47.80062 | 7.99622 | 28727 ft | 438 kts | 115° |
| 2026-05-05 09:58 | 47.78949 | 8.03848 | 28143 ft | 436 kts | 115° |
| 2026-05-05 09:58 | 47.77857 | 8.08001 | 27576 ft | 433 kts | 114° |
| 2026-05-05 09:59 | 47.76835 | 8.12092 | 27006 ft | 431 kts | 114° |
| 2026-05-05 09:59 | 47.75789 | 8.16323 | 26425 ft | 429 kts | 113° |
| 2026-05-05 09:59 | 47.74764 | 8.20459 | 25853 ft | 426 kts | 113° |
| 2026-05-05 09:59 | 47.73745 | 8.24568 | 25294 ft | 424 kts | 113° |
| 2026-05-05 10:00 | 47.72736 | 8.28624 | 24747 ft | 421 kts | 113° |
| 2026-05-05 10:00 | 47.71723 | 8.32685 | 24188 ft | 418 kts | 113° |
| 2026-05-05 10:00 | 47.70724 | 8.36683 | 23632 ft | 415 kts | 113° |
| 2026-05-05 10:00 | 47.69846 | 8.40727 | 23111 ft | 414 kts | 105° |
| 2026-05-05 10:01 | 47.69588 | 8.44983 | 22502 ft | 414 kts | 90° |
| 2026-05-05 10:01 | 47.70065 | 8.49186 | 21928 ft | 413 kts | 77° |
| 2026-05-05 10:01 | 47.70882 | 8.53236 | 21349 ft | 408 kts | 76° |
| 2026-05-05 10:01 | 47.71685 | 8.57182 | 20836 ft | 402 kts | 76° |
| 2026-05-05 10:02 | 47.72485 | 8.61131 | 20308 ft | 397 kts | 76° |
| 2026-05-05 10:02 | 47.73266 | 8.65001 | 19788 ft | 390 kts | 76° |
| 2026-05-05 10:02 | 47.74038 | 8.68829 | 19271 ft | 384 kts | 77° |
| 2026-05-05 10:02 | 47.74793 | 8.72585 | 18785 ft | 378 kts | 76° |
| 2026-05-05 10:03 | 47.75531 | 8.76264 | 18272 ft | 371 kts | 77° |
| 2026-05-05 10:03 | 47.76256 | 8.79889 | 17817 ft | 366 kts | 76° |
| 2026-05-05 10:03 | 47.76971 | 8.83471 | 17304 ft | 360 kts | 76° |
| 2026-05-05 10:03 | 47.77675 | 8.87004 | 16846 ft | 354 kts | 77° |
| 2026-05-05 10:04 | 47.78362 | 8.90459 | 16388 ft | 348 kts | 77° |
| 2026-05-05 10:04 | 47.79046 | 8.93905 | 15907 ft | 344 kts | 77° |
| 2026-05-05 10:04 | 47.79707 | 8.97247 | 15478 ft | 338 kts | 77° |
| 2026-05-05 10:04 | 47.80360 | 9.00548 | 15023 ft | 334 kts | 77° |
| 2026-05-05 10:05 | 47.81013 | 9.03859 | 14592 ft | 329 kts | 77° |
| 2026-05-05 10:05 | 47.81647 | 9.07078 | 14157 ft | 326 kts | 77° |
| 2026-05-05 10:05 | 47.82281 | 9.10304 | 13715 ft | 322 kts | 77° |
| 2026-05-05 10:05 | 47.82896 | 9.13436 | 13320 ft | 318 kts | 77° |
| 2026-05-05 10:06 | 47.83513 | 9.16589 | 12885 ft | 315 kts | 77° |
| 2026-05-05 10:06 | 47.84117 | 9.19677 | 12470 ft | 311 kts | 77° |
| 2026-05-05 10:06 | 47.84710 | 9.22728 | 12076 ft | 307 kts | 78° |
| 2026-05-05 10:06 | 47.84990 | 9.25831 | 11640 ft | 300 kts | 90° |
| 2026-05-05 10:07 | 47.85057 | 9.28884 | 11266 ft | 296 kts | 90° |
| 2026-05-05 10:07 | 47.85131 | 9.31918 | 10863 ft | 292 kts | 90° |
| 2026-05-05 10:07 | 47.85205 | 9.34933 | 10473 ft | 289 kts | 90° |
| 2026-05-05 10:07 | 47.85277 | 9.37888 | 10095 ft | 285 kts | 90° |
| 2026-05-05 10:08 | 47.85347 | 9.40811 | 9715 ft | 282 kts | 89° |
| 2026-05-05 10:08 | 47.85416 | 9.43692 | 9357 ft | 277 kts | 89° |
| 2026-05-05 10:08 | 47.85484 | 9.46522 | 8996 ft | 275 kts | 89° |
| 2026-05-05 10:08 | 47.85550 | 9.49354 | 8614 ft | 272 kts | 89° |
| 2026-05-05 10:09 | 47.85616 | 9.52141 | 8249 ft | 267 kts | 89° |
| 2026-05-05 10:09 | 47.85679 | 9.54889 | 7916 ft | 264 kts | 89° |
| 2026-05-05 10:09 | 47.85741 | 9.57572 | 7540 ft | 261 kts | 89° |
| 2026-05-05 10:09 | 47.85802 | 9.60251 | 7227 ft | 256 kts | 88° |
| 2026-05-05 10:10 | 47.85861 | 9.62859 | 6881 ft | 253 kts | 88° |
| 2026-05-05 10:10 | 47.85919 | 9.65440 | 6558 ft | 249 kts | 89° |
| 2026-05-05 10:10 | 47.85976 | 9.67997 | 6369 ft | 240 kts | 89° |
| 2026-05-05 10:10 | 47.85991 | 9.70453 | 6018 ft | 239 kts | 97° |
| 2026-05-05 10:11 | 47.85460 | 9.72769 | 5685 ft | 235 kts | 124° |
| 2026-05-05 10:11 | 47.84312 | 9.74439 | 5362 ft | 232 kts | 148° |
| 2026-05-05 10:11 | 47.82927 | 9.75626 | 4993 ft | 233 kts | 151° |
| 2026-05-05 10:11 | 47.81526 | 9.76807 | 4711 ft | 228 kts | 151° |
| 2026-05-05 10:12 | 47.80110 | 9.77761 | 4441 ft | 223 kts | 166° |
| 2026-05-05 10:12 | 47.78648 | 9.77813 | 4403 ft | 198 kts | 193° |
| 2026-05-05 10:12 | 47.77414 | 9.77044 | 4414 ft | 191 kts | 211° |
| 2026-05-05 10:12 | 47.76416 | 9.75769 | 4397 ft | 190 kts | 230° |
| 2026-05-05 10:13 | 47.75707 | 9.74114 | 4369 ft | 190 kts | 242° |
| 2026-05-05 10:13 | 47.75153 | 9.72323 | 4335 ft | 191 kts | 245° |
| 2026-05-05 10:13 | 47.74596 | 9.70529 | 4125 ft | 191 kts | 243° |
| 2026-05-05 10:13 | 47.74003 | 9.68840 | 3874 ft | 174 kts | 240° |
| 2026-05-05 10:14 | 47.73449 | 9.67389 | 3641 ft | 147 kts | 239° |
| 2026-05-05 10:14 | 47.72960 | 9.66156 | 3507 ft | 139 kts | 238° |
| 2026-05-05 10:14 | 47.72471 | 9.64930 | 3292 ft | 135 kts | 239° |
| 2026-05-05 10:14 | 47.72004 | 9.63748 | 3110 ft | 133 kts | 239° |
| 2026-05-05 10:15 | 47.71538 | 9.62553 | 2945 ft | 132 kts | 239° |
| 2026-05-05 10:15 | 47.71083 | 9.61371 | 2773 ft | 131 kts | 240° |
| 2026-05-05 10:15 | 47.70635 | 9.60207 | 2604 ft | 131 kts | 240° |
| 2026-05-05 10:15 | 47.70186 | 9.59036 | 2424 ft | 130 kts | 240° |
| 2026-05-05 10:16 | 47.69740 | 9.57879 | 2259 ft | 130 kts | 240° |
| 2026-05-05 10:16 | 47.69292 | 9.56723 | 2087 ft | 129 kts | 241° |
| 2026-05-05 10:16 | 47.68848 | 9.55576 | 1915 ft | 129 kts | 240° |
| 2026-05-05 10:16 | 47.68399 | 9.54421 | 1748 ft | 127 kts | 241° |
| 2026-05-05 10:17 | 47.67959 | 9.53287 | 1573 ft | 128 kts | 240° |
| 2026-05-05 10:17 | 47.67515 | 9.52141 | 1389 ft | 127 kts | 241° |
| 2026-05-05 10:17 | 47.67124 | 9.51132 | 1354 ft | 92 kts | 241° |
| 2026-05-05 10:17 | 47.66966 | 9.50761 | 1349 ft | 24 kts | 229° |
| 2026-05-05 10:18 | 47.66884 | 9.50674 | 1347 ft | 14 kts | 209° |
| 2026-05-05 10:18 | 47.66793 | 9.50601 | 1346 ft | 8 kts | 187° |
| 2026-05-05 10:18 | 47.66764 | 9.50674 | 1347 ft | 11 kts | 72° |
| 2026-05-05 10:18 | 47.66811 | 9.50799 | 1350 ft | 17 kts | 60° |
| 2026-05-05 10:19 | 47.66882 | 9.50982 | 1353 ft | 22 kts | 60° |
| 2026-05-05 10:19 | 47.66945 | 9.51144 | 1353 ft | 14 kts | 60° |
| 2026-05-05 10:19 | 47.66994 | 9.51267 | 1356 ft | 15 kts | 59° |
| 2026-05-05 10:19 | 47.67049 | 9.51407 | 1357 ft | 15 kts | 62° |
| 2026-05-05 10:20 | 47.67096 | 9.51535 | 1359 ft | 14 kts | 60° |
| 2026-05-05 10:20 | 47.67158 | 9.51692 | 1361 ft | 19 kts | 61° |
| 2026-05-05 10:20 | 47.67214 | 9.51838 | 1364 ft | 12 kts | 61° |
| 2026-05-05 10:20 | 47.67253 | 9.51939 | 1365 ft | 11 kts | 59° |
| 2026-05-05 10:21 | 47.67303 | 9.52065 | 1367 ft | 15 kts | 60° |
| 2026-05-05 10:21 | 47.67322 | 9.52116 | 1367 ft | 14 kts | 60° |
| 2026-05-05 10:21 | 47.67355 | 9.52226 | 1367 ft | 5 kts | 125° |
| 2026-05-05 10:21 | 47.67323 | 9.52249 | 1367 ft | 3 kts | 176° |
| 2026-05-05 10:22 | 47.67315 | 9.52248 | 1367 ft | 0 kts | 185° |